Main page
METAR-TAF:

METAR-TAF

Airports :

Palacios Municipal Airport

Palacios, Texas, United States

latitude: 28-43-39N, longitude: 096-15-03W, elevation: 16 ft

Current weather observation

The report was made 21 minutes ago, at 02:53 UTC
Wind 20 mph from the North with gusts up to 28 mph
Temperature 50°F
Humidity 87%
Pressure 30.33 in. Hg
Visibility: 10 miles
Broken clouds at a height of 1900 ft
Overcast at a height of 2400 ft

METAR: KPSX 110253Z AUTO 36017G24KT 10SM BKN019 OVC024 10/08 A3033 RMK AO2 SLP271 T01000078 51035

Time: 21:14 (03:14 UTC)


TAF: missing

Weather observations and forecasts of more than 4000 airports (METAR and TAF reports).

The available stations are represented by yellow and red dots on the map.

Hover mouse over dot to see the name of the station.

Then click to see weather observations and forecasts.

To change the map : click on the green buttons with a black cross to zoom in, on the green button with a dash to zoom out, or on the green arrows for adjacent maps.


METAR-TAF: